createdAt,value
2023-03-18T13:01:54.060Z,6.40
2023-03-18T13:15:53.989Z,4.10
2023-03-18T13:18:48.956Z,5.80
2023-03-18T13:21:23.983Z,5.50
2023-03-18T13:27:57.334Z,6.10
2023-03-18T13:30:38.751Z,8.10
2023-03-18T13:33:51.678Z,5.90
2023-03-18T13:42:23.996Z,4.30
2023-03-18T13:45:01.338Z,3.20
2023-03-18T13:47:42.817Z,3.80
2023-03-18T13:50:19.413Z,3.60
2023-03-18T13:52:48.583Z,2.90
2023-03-18T13:55:48.257Z,3.50
2023-03-18T13:58:21.459Z,3.30
2023-03-18T14:01:00.646Z,3.60
2023-03-18T14:03:58.803Z,3.20
2023-03-18T14:07:01.078Z,3.00
2023-03-18T14:10:47.437Z,2.90
2023-03-18T14:13:43.292Z,3.60
2023-03-18T14:29:10.330Z,5.10
2023-03-18T14:32:09.566Z,3.90
2023-03-18T14:35:19.593Z,7.00
2023-03-18T14:38:23.078Z,5.60
2023-03-18T14:40:57.131Z,4.60
2023-03-18T14:43:53.413Z,4.70
2023-03-18T14:46:23.877Z,6.70
2023-03-18T14:48:53.905Z,5.30
2023-03-18T14:51:24.407Z,7.40
2023-03-18T14:54:21.475Z,5.80
2023-03-18T14:56:56.525Z,5.50
2023-03-18T14:59:29.223Z,4.80
2023-03-18T15:01:58.209Z,5.40
2023-03-18T15:04:48.955Z,6.20
2023-03-18T15:10:51.046Z,9.60
2023-03-18T15:17:13.997Z,6.00
2023-03-18T15:19:47.321Z,8.00
2023-03-18T15:22:26.524Z,5.40
2023-03-18T15:32:41.420Z,9.40
2023-03-18T15:36:02.444Z,11.10
2023-03-18T15:38:31.358Z,9.40
2023-03-18T15:41:11.589Z,5.90
2023-03-18T15:43:42.748Z,6.60
2023-03-18T16:15:51.922Z,9.90
2023-03-18T17:14:57.446Z,12.20
2023-03-18T21:47:57.443Z,10.30
2023-03-18T21:50:27.875Z,12.00
2023-03-18T21:52:59.441Z,12.50
2023-03-18T21:55:28.712Z,9.00
2023-03-18T21:57:57.610Z,9.80
2023-03-18T22:00:26.447Z,10.00
